D/T METAR WX W/DIR W/SPE G/SPE TEMP DEWP
9/12/19 12:50 EGXW 091250Z 33017KT 9999 FEW028 07/M01 Q1012 NOSIG RMK BLU BLU NNW (330°) 19.6mph 7°C -1°C
9/12/19 12:20 EGXW 091220Z 33016KT 9999 FEW025 07/M00 Q1012 NOSIG RMK BLU BLU NNW (330°) 18.4mph 7°C 0°C
9/12/19 11:50 EGXW 091150Z 32020KT 9999 FEW025 07/M00 Q1011 NOSIG RMK BLU BLU NW (320°) 23.0mph 7°C 0°C
9/12/19 11:20 EGXW 091120Z 32022KT 9999 FEW025 07/M00 Q1010 NOSIG RMK BLU BLU NW (320°) 25.3mph 7°C 0°C
9/12/19 10:50 EGXW 091050Z 32020G31KT 9999 FEW045 07/M00 Q1009 NOSIG RMK BLU BLU NW (320°) 23.0mph 35.7mph 7°C 0°C
9/12/19 10:21 EGXW 091021Z 32019G32KT 9999 FEW045 07/M00 Q1008 NOSIG RMK BLU BLU NW (320°) 21.9mph 36.8mph 7°C 0°C
9/12/19 09:50 EGXW 090950Z 32017KT 9999 FEW045 06/M00 Q1006 NOSIG RMK BLU BLU NW (320°) 19.6mph 6°C 0°C
9/12/19 09:21 EGXW 090921Z 32018KT CAVOK 06/M00 Q1005 NOSIG RMK BLU BLU NW (320°) 20.7mph 6°C 0°C
9/12/19 08:50 EGXW 090850Z 32017G29KT CAVOK 06/00 Q1003 NOSIG RMK BLU BLU NW (320°) 19.6mph 33.4mph 6°C 0°C
9/12/19 08:20 EGXW 090820Z 32018G29KT 9999 FEW025 06/01 Q1002 NOSIG RMK BLU BLU NW (320°) 20.7mph 33.4mph 6°C 1°C
9/12/19 07:50 EGXW 090750Z 31018G31KT 9999 FEW035 06/01 Q1001 NOSIG RMK BLU BLU NW (310°) 20.7mph 35.7mph 6°C 1°C
9/12/19 07:20 EGXW 090720Z 32018G29KT 9999 FEW035 BKN250 07/01 Q0999 NOSIG RMK BLU BLU NW (320°) 20.7mph 33.4mph 7°C 1°C
9/12/19 06:50 EGXW 090650Z 32018KT 9999 FEW030 BKN250 07/02 Q0998 NOSIG RMK BLU BLU NW (320°) 20.7mph 7°C 2°C
9/12/19 05:50 EGXW 090550Z 32017KT 9999 SCT035 07/02 Q0995 RMK BLU NW (320°) 19.6mph 7°C 2°C
9/12/19 04:50 EGXW 090450Z 28009KT 9999 FEW018 BKN030 06/04 Q0992 RMK BLU W (280°) 10.4mph 6°C 4°C
9/12/19 03:50 EGXW 090350Z 26010KT 9999 -RA BKN018 OVC022 06/04 Q0990 RMK WHT -RA W (260°) 11.5mph 6°C 4°C
9/12/19 02:50 EGXW 090250Z AUTO 25009KT 9999 SCT031/// BKN039/// 05/04 Q0989 WSW (250°) 10.4mph 5°C 4°C
9/12/19 01:50 EGXW 090150Z AUTO 24011KT 9999 BKN044/// 06/04 Q0988 WSW (240°) 12.7mph 6°C 4°C
9/12/19 00:50 EGXW 090050Z AUTO 23014KT 9999 FEW015/// SCT019/// 06/03 Q0987 SW (230°) 16.1mph 6°C 3°C
8/12/19 23:50 EGXW 082350Z AUTO 23015KT 9999 FEW200/// 05/03 Q0987 SW (230°) 17.3mph 5°C 3°C
8/12/19 22:50 EGXW 082250Z AUTO 22015KT 9999 NCD 05/02 Q0987 SW (220°) 17.3mph 5°C 2°C
8/12/19 21:50 EGXW 082150Z AUTO 22017KT 9999 FEW220/// 05/02 Q0987 SW (220°) 19.6mph 5°C 2°C
8/12/19 20:50 EGXW 082050Z AUTO 23018KT 9999 NCD 06/02 Q0988 SW (230°) 20.7mph 6°C 2°C
8/12/19 19:50 EGXW 081950Z AUTO 23018KT 9999 NCD 06/02 Q0989 SW (230°) 20.7mph 6°C 2°C
8/12/19 18:50 EGXW 081850Z AUTO 23017KT 9999 NCD 06/02 Q0990 SW (230°) 19.6mph 6°C 2°C
8/12/19 17:50 EGXW 081750Z AUTO 23017KT 9999 NCD 06/02 Q0991 SW (230°) 19.6mph 6°C 2°C
8/12/19 16:50 EGXW 081650Z AUTO 22016KT 9999 NCD 06/02 Q0991 SW (220°) 18.4mph 6°C 2°C
8/12/19 15:50 EGXW 081550Z AUTO 24017G27KT 9999 FEW036/// SCT045/// 07/02 Q0992 WSW (240°) 19.6mph 31.1mph 7°C 2°C
8/12/19 14:50 EGXW 081450Z AUTO 24016KT 9999 SCT044/// 08/02 Q0992 WSW (240°) 18.4mph 8°C 2°C
8/12/19 13:50 EGXW 081350Z AUTO 25021KT 9999 SCT035/// 09/02 Q0992 WSW (250°) 24.2mph 9°C 2°C
8/12/19 12:50 EGXW 081250Z AUTO 24021G36KT 9999 NCD 09/02 Q0993 WSW (240°) 24.2mph 41.4mph 9°C 2°C
8/12/19 11:50 EGXW 081150Z AUTO 24018KT 9999 NCD 09/03 Q0993 WSW (240°) 20.7mph 9°C 3°C
8/12/19 10:50 EGXW 081050Z AUTO 24021G33KT 9999 NCD 09/03 Q0994 WSW (240°) 24.2mph 38.0mph 9°C 3°C
8/12/19 09:50 EGXW 080950Z AUTO 23016KT 9999 NCD 08/04 Q0994 SW (230°) 18.4mph 8°C 4°C
8/12/19 08:50 EGXW 080850Z AUTO 24014KT 9999 FEW044/// 07/04 Q0995 WSW (240°) 16.1mph 7°C 4°C
8/12/19 07:50 EGXW 080750Z AUTO 26014KT 9999 BKN070/// 08/04 Q0994 W (260°) 16.1mph 8°C 4°C
8/12/19 06:50 EGXW 080650Z AUTO 26014KT 9999 BKN050/// 09/06 Q0994 RERA W (260°) 16.1mph 9°C 6°C
8/12/19 05:50 EGXW 080550Z AUTO 28020G30KT 7000 RA SCT024/// SCT031/// 09/06 Q0993 RA W (280°) 23.0mph 34.5mph 9°C 6°C
8/12/19 04:50 EGXW 080450Z AUTO 24021G32KT 9999 FEW011/// SCT050/// 11/09 Q0992 RERA WSW (240°) 24.2mph 36.8mph 11°C 9°C
8/12/19 03:50 EGXW 080350Z AUTO 22022G33KT 9999 BKN011/// SCT021/// 11/09 Q0992 SW (220°) 25.3mph 38.0mph 11°C 9°C
8/12/19 02:50 EGXW 080250Z AUTO 22024KT 9999 BKN012/// BKN018/// 11/09 Q0993 RERA SW (220°) 27.6mph 11°C 9°C
8/12/19 01:50 EGXW 080150Z AUTO 22024G34KT 9999 BKN012/// 10/08 Q0994 RERA SW (220°) 27.6mph 39.1mph 10°C 8°C
8/12/19 00:50 EGXW 080050Z AUTO 21025KT 9999 RA BKN008/// 09/08 Q0995 RA SSW (210°) 28.8mph 9°C 8°C
7/12/19 23:50 EGXW 072350Z AUTO 20022G33KT 9999 RA BKN012/// BKN070/// 09/08 Q0998 RA SSW (200°) 25.3mph 38.0mph 9°C 8°C
7/12/19 22:50 EGXW 072250Z AUTO 21022G32KT 9999 OVC012/// 09/07 Q0999 SSW (210°) 25.3mph 36.8mph 9°C 7°C
7/12/19 21:50 EGXW 072150Z AUTO 21022KT 9999 OVC010/// 09/07 Q1001 SSW (210°) 25.3mph 9°C 7°C
7/12/19 20:50 EGXW 072050Z AUTO 21019KT 9999 BKN009/// 09/07 Q1003 SSW (210°) 21.9mph 9°C 7°C
7/12/19 19:50 EGXW 071950Z AUTO 22019KT 9999 SCT010/// SCT016/// 08/07 Q1004 SW (220°) 21.9mph 8°C 7°C